Time;durP1;ratioP1;P1;durP2;ratioP2;P2;SDS_P1;SDS_P2;PMS_P1;PMS_P2;Temp;Humidity;BMP_temperature;BMP_pressure;BME280_temperature;BME280_humidity;BME280_pressure;Samples;Min_cycle;Max_cycle;Signal;HPM_P1;HPM_P2
2022/01/12 00:00:53;;;;;;;1.70;1.50;;;-2.30;99.90;;;;;;5045613;28;20814;-60
2022/01/12 00:03:20;;;;;;;1.97;1.70;;;-2.30;99.90;;;;;;5059284;28;20476;-60
2022/01/12 00:05:48;;;;;;;1.50;1.40;;;-2.20;99.90;;;;;;5049849;28;21036;-58
2022/01/12 00:08:15;;;;;;;1.93;1.60;;;-2.30;99.90;;;;;;5045110;28;20481;-56
2022/01/12 00:10:43;;;;;;;2.73;1.80;;;-2.70;99.90;;;;;;5061790;28;20540;-58
2022/01/12 00:13:10;;;;;;;2.50;2.30;;;-2.60;99.90;;;;;;5048228;28;20507;-59
2022/01/12 00:15:38;;;;;;;2.40;2.00;;;-2.50;99.90;;;;;;5044253;28;20560;-63
2022/01/12 00:18:06;;;;;;;2.20;2.00;;;-2.40;99.90;;;;;;5054713;28;20648;-59
2022/01/12 00:20:34;;;;;;;3.10;2.00;;;-2.30;99.90;;;;;;5055989;28;20545;-60
2022/01/12 00:23:02;;;;;;;2.33;1.80;;;-2.30;99.90;;;;;;5045304;28;20970;-61
2022/01/12 00:25:32;;;;;;;3.23;2.53;;;-2.40;99.90;;;;;;5055933;28;20559;-59
2022/01/12 00:33:30;;;;;;;4.30;3.20;;;-3.30;99.90;;;;;;5038680;28;20483;-57
2022/01/12 00:35:59;;;;;;;3.00;2.70;;;-3.10;99.90;;;;;;5053256;28;20996;-58
2022/01/12 00:38:29;;;;;;;4.73;3.00;;;-2.90;99.90;;;;;;5062258;28;20466;-59
2022/01/12 00:40:57;;;;;;;2.70;2.20;;;-2.80;99.90;;;;;;5049442;28;20449;-60
2022/01/12 00:43:26;;;;;;;1.50;1.40;;;-2.70;99.90;;;;;;5047166;28;20528;-59
2022/01/12 00:45:54;;;;;;;2.00;1.50;;;-2.60;99.90;;;;;;5046037;28;20483;-60
2022/01/12 00:48:21;;;;;;;2.90;2.00;;;-2.50;99.90;;;;;;5046416;28;20452;-58
2022/01/12 00:50:50;;;;;;;2.33;1.90;;;-2.50;99.90;;;;;;5045079;28;20622;-58
2022/01/12 00:53:17;;;;;;;1.90;1.80;;;-2.60;99.90;;;;;;5055812;28;20954;-58
2022/01/12 00:55:44;;;;;;;1.80;1.70;;;-2.60;99.90;;;;;;5049159;28;20466;-58
2022/01/12 00:58:11;;;;;;;2.67;2.00;;;-2.70;99.90;;;;;;5050536;28;20473;-59
2022/01/12 01:00:39;;;;;;;1.70;1.60;;;-2.80;99.90;;;;;;5045925;28;20517;-59
2022/01/12 01:03:07;;;;;;;1.83;1.63;;;-2.80;99.90;;;;;;5049917;28;20474;-59
2022/01/12 01:05:34;;;;;;;1.47;1.37;;;-2.80;99.90;;;;;;5054144;28;20821;-58
2022/01/12 01:08:04;;;;;;;2.20;2.00;;;-2.80;99.90;;;;;;5047986;28;20453;-59
2022/01/12 01:10:43;;;;;;;2.10;1.90;;;-2.80;99.90;;;;;;5056220;28;20477;-59
2022/01/12 01:13:10;;;;;;;2.50;1.77;;;-2.80;99.90;;;;;;5051686;28;20449;-58
2022/01/12 01:15:56;;;;;;;1.60;1.50;;;-3.10;99.90;;;;;;5043547;28;20493;-59
2022/01/12 01:26:41;;;;;;;1.77;1.40;;;-3.30;99.90;;;;;;5052608;28;20775;-60
2022/01/12 01:29:08;;;;;;;1.80;1.50;;;-3.30;99.90;;;;;;5047133;28;20473;-57
2022/01/12 01:31:36;;;;;;;2.40;1.90;;;-3.90;99.90;;;;;;5054477;28;20797;-60
2022/01/12 01:34:09;;;;;;;2.43;1.90;;;-3.90;99.90;;;;;;5058403;28;20814;-60
2022/01/12 01:36:38;;;;;;;2.10;1.80;;;-3.70;99.90;;;;;;5044453;28;20970;-60
2022/01/12 01:39:09;;;;;;;2.03;1.83;;;-3.60;99.90;;;;;;5050493;28;20512;-60
2022/01/12 01:41:37;;;;;;;2.87;1.23;;;-3.40;99.90;;;;;;5058047;28;20502;-60
2022/01/12 01:44:33;;;;;;;2.80;2.00;;;-3.40;99.90;;;;;;5049260;28;20453;-60
2022/01/12 01:55:14;;;;;;;2.60;2.23;;;-3.20;99.90;;;;;;5056870;28;20462;-58
2022/01/12 01:57:41;;;;;;;1.67;1.50;;;-3.20;99.90;;;;;;5040989;28;20477;-60
2022/01/12 02:00:11;;;;;;;1.90;1.30;;;-3.20;99.90;;;;;;5048761;28;20516;-58
2022/01/12 02:02:38;;;;;;;1.87;1.77;;;-3.10;99.90;;;;;;5054214;28;20478;-59
2022/01/12 02:05:06;;;;;;;3.90;2.00;;;-3.10;99.90;;;;;;5042799;28;20461;-60
2022/01/12 02:07:33;;;;;;;1.83;1.73;;;-3.20;99.90;;;;;;5046933;28;20887;-59
2022/01/12 02:10:01;;;;;;;2.27;1.70;;;-3.20;99.90;;;;;;5052148;28;20477;-58
2022/01/12 02:12:29;;;;;;;3.07;1.87;;;-3.30;99.90;;;;;;5045300;28;20469;-60
2022/01/12 02:14:57;;;;;;;1.87;1.57;;;-3.30;99.90;;;;;;5042836;28;20500;-58
2022/01/12 02:17:28;;;;;;;2.03;1.40;;;-3.30;99.90;;;;;;5044511;28;20535;-63
2022/01/12 02:20:12;;;;;;;1.30;1.20;;;-3.60;99.90;;;;;;5048880;28;20539;-57
2022/01/12 02:36:29;;;;;;;1.53;1.23;;;-4.10;99.90;;;;;;5052093;28;20478;-59
2022/01/12 02:41:43;;;;;;;2.70;2.03;;;-3.80;99.90;;;;;;5057748;28;20520;-58
2022/01/12 02:55:09;;;;;;;1.90;1.67;;;-3.60;99.90;;;;;;5023099;28;20954;-58
2022/01/12 02:57:36;;;;;;;2.07;1.67;;;-3.60;99.90;;;;;;5053034;28;20914;-57
2022/01/12 03:00:07;;;;;;;2.43;2.23;;;-3.60;99.90;;;;;;5048149;28;20484;-57
2022/01/12 03:02:37;;;;;;;2.13;1.80;;;-3.60;99.90;;;;;;5056239;28;20884;-59
2022/01/12 03:05:25;;;;;;;2.47;1.50;;;-3.60;99.90;;;;;;5060404;28;20972;-58
2022/01/12 03:07:53;;;;;;;2.47;1.70;;;-3.90;99.90;;;;;;5052242;28;20440;-58
2022/01/12 03:10:22;;;;;;;1.80;1.70;;;-3.80;99.90;;;;;;5051782;28;20520;-58
2022/01/12 03:12:49;;;;;;;2.00;1.70;;;-3.70;99.90;;;;;;5049687;28;20448;-59
2022/01/12 03:15:16;;;;;;;1.83;1.30;;;-3.70;99.90;;;;;;5040146;28;20523;-58
2022/01/12 03:17:43;;;;;;;1.87;1.30;;;-3.70;99.90;;;;;;5050350;28;20468;-58
2022/01/12 03:20:11;;;;;;;1.67;1.43;;;-3.70;99.90;;;;;;5055290;28;21000;-58
2022/01/12 03:22:38;;;;;;;2.60;1.80;;;-3.70;99.90;;;;;;5052085;28;20538;-57
2022/01/12 03:25:06;;;;;;;2.93;1.93;;;-3.80;99.90;;;;;;5049781;28;20472;-58
2022/01/12 03:27:34;;;;;;;1.63;1.53;;;-4.10;99.90;;;;;;5056640;28;20481;-58
2022/01/12 03:30:01;;;;;;;1.93;1.43;;;-4.40;99.90;;;;;;5033563;28;20937;-60
2022/01/12 03:32:35;;;;;;;1.50;1.40;;;-4.30;99.90;;;;;;5056847;28;20480;-59
2022/01/12 03:35:10;;;;;;;1.80;1.70;;;-4.20;99.90;;;;;;5050586;28;20481;-59
2022/01/12 03:37:43;;;;;;;2.07;1.50;;;-4.10;99.90;;;;;;5055322;28;20704;-60
2022/01/12 03:40:10;;;;;;;2.03;1.93;;;-4.00;99.90;;;;;;5054128;28;20969;-59
2022/01/12 03:42:39;;;;;;;1.53;1.43;;;-4.00;99.90;;;;;;5046311;28;20445;-59
2022/01/12 03:45:07;;;;;;;2.07;1.37;;;-4.00;99.90;;;;;;5052793;28;20516;-58
2022/01/12 03:47:34;;;;;;;1.43;1.33;;;-4.00;99.90;;;;;;5055772;28;20955;-59
2022/01/12 03:50:01;;;;;;;1.10;1.10;;;-4.20;99.90;;;;;;5052192;28;20504;-58
2022/01/12 03:52:28;;;;;;;1.33;1.23;;;-4.20;99.90;;;;;;5048754;28;20956;-59
2022/01/12 03:54:55;;;;;;;1.30;1.00;;;-4.10;99.90;;;;;;5058613;28;20765;-58
2022/01/12 03:57:22;;;;;;;4.20;1.77;;;-4.10;99.90;;;;;;5054077;28;20472;-57
2022/01/12 03:59:50;;;;;;;1.80;1.37;;;-4.00;99.90;;;;;;5045662;28;20942;-59
2022/01/12 04:02:17;;;;;;;1.73;1.30;;;-4.00;99.90;;;;;;5053439;28;20984;-59
2022/01/12 04:05:07;;;;;;;1.43;1.33;;;-4.60;99.90;;;;;;5055493;28;20472;-59
2022/01/12 04:10:19;;;;;;;1.30;1.20;;;-4.90;99.90;;;;;;5045678;28;20479;-59
2022/01/12 04:12:46;;;;;;;1.27;1.17;;;-4.80;99.90;;;;;;5054179;28;20461;-59
2022/01/12 04:15:15;;;;;;;1.47;1.37;;;-4.70;99.90;;;;;;5059252;28;20506;-59
2022/01/12 04:17:42;;;;;;;2.10;2.00;;;-4.50;99.90;;;;;;5041198;28;21183;-58
2022/01/12 04:20:09;;;;;;;1.60;1.50;;;-4.40;99.90;;;;;;5052111;28;20581;-59
2022/01/12 04:25:22;;;;;;;1.10;1.00;;;-4.30;99.90;;;;;;5046005;28;20643;-58
2022/01/12 04:27:49;;;;;;;1.43;1.30;;;-4.30;99.90;;;;;;5048207;28;20437;-58
2022/01/12 04:30:17;;;;;;;1.30;1.17;;;-4.20;99.90;;;;;;5049709;28;20476;-59
2022/01/12 04:32:44;;;;;;;1.43;1.33;;;-4.20;99.90;;;;;;5047033;28;20746;-57
2022/01/12 04:35:13;;;;;;;1.13;1.03;;;-4.20;99.90;;;;;;5046395;28;20476;-58
2022/01/12 04:37:40;;;;;;;1.07;0.97;;;-4.40;99.90;;;;;;5050507;28;20456;-59
2022/01/12 04:40:08;;;;;;;1.60;1.03;;;-4.60;99.90;;;;;;5056954;28;21034;-58
2022/01/12 04:42:36;;;;;;;4.07;1.70;;;-4.60;99.90;;;;;;5046650;28;20822;-59
2022/01/12 04:45:16;;;;;;;2.37;2.00;;;-4.50;99.90;;;;;;5046695;28;20552;-58
2022/01/12 04:48:00;;;;;;;3.77;1.83;;;-4.60;99.90;;;;;;5041663;28;20458;-59
2022/01/12 04:50:30;;;;;;;2.23;1.97;;;-4.50;99.90;;;;;;5056106;28;20993;-59
2022/01/12 04:52:58;;;;;;;1.60;1.47;;;-4.50;99.90;;;;;;5038875;28;20445;-59
2022/01/12 04:55:25;;;;;;;1.40;1.08;;;-4.90;99.90;;;;;;5044098;28;20842;-58
2022/01/12 04:57:52;;;;;;;0.90;0.90;;;-5.10;99.90;;;;;;5043275;28;20242;-59
2022/01/12 05:00:21;;;;;;;3.13;1.53;;;-5.00;99.90;;;;;;5041565;28;20484;-58
2022/01/12 05:08:34;;;;;;;2.77;1.77;;;-4.80;99.90;;;;;;5044744;28;20563;-59
2022/01/12 05:13:48;;;;;;;1.10;1.00;;;-5.10;99.90;;;;;;5044161;28;20440;-58
2022/01/12 05:16:16;;;;;;;1.65;1.30;;;-4.90;99.90;;;;;;5041643;28;20480;-58
2022/01/12 05:18:46;;;;;;;1.77;1.40;;;-4.70;99.90;;;;;;5045786;28;20230;-58
2022/01/12 05:21:13;;;;;;;1.42;1.02;;;-4.60;99.90;;;;;;5044580;28;21074;-59
2022/01/12 05:23:40;;;;;;;1.40;1.30;;;-4.60;99.90;;;;;;5042449;28;20246;-59
2022/01/12 05:26:08;;;;;;;1.43;1.20;;;-4.60;99.90;;;;;;5050150;28;20505;-59
2022/01/12 05:28:38;;;;;;;1.43;1.10;;;-4.60;99.90;;;;;;5049222;28;20506;-59
2022/01/12 05:31:05;;;;;;;1.52;1.40;;;-4.70;99.90;;;;;;5044552;28;20486;-58
2022/01/12 05:33:32;;;;;;;1.40;1.30;;;-4.70;99.90;;;;;;5049346;28;20230;-58
2022/01/12 05:36:03;;;;;;;1.53;1.43;;;-4.70;99.90;;;;;;5052289;28;20950;-59
2022/01/12 05:38:30;;;;;;;3.90;3.70;;;-4.70;99.90;;;;;;5051632;28;20498;-59
2022/01/12 05:41:01;;;;;;;2.00;1.90;;;-4.60;99.90;;;;;;5045677;28;20958;-58
2022/01/12 05:43:30;;;;;;;2.28;1.77;;;-4.80;99.90;;;;;;5044171;28;20531;-58
2022/01/12 05:46:00;;;;;;;1.70;1.60;;;-5.00;99.90;;;;;;5057846;28;20706;-59
2022/01/12 05:51:13;;;;;;;1.80;1.70;;;-4.80;99.90;;;;;;5049468;28;21727;-59
2022/01/12 05:53:40;;;;;;;1.67;1.57;;;-4.80;99.90;;;;;;5053689;28;20536;-57
2022/01/12 05:56:07;;;;;;;1.53;1.33;;;-4.70;99.90;;;;;;5052319;28;20527;-59
2022/01/12 05:58:34;;;;;;;3.53;1.87;;;-4.70;99.90;;;;;;5046916;28;20514;-58
2022/01/12 06:01:01;;;;;;;1.77;1.67;;;-4.80;99.90;;;;;;5052188;28;21095;-58
2022/01/12 06:03:28;;;;;;;1.27;1.17;;;-5.40;99.90;;;;;;5046906;28;20483;-59
2022/01/12 06:05:55;;;;;;;1.23;1.13;;;-5.40;99.90;;;;;;5047899;28;20560;-59
2022/01/12 06:08:23;;;;;;;2.17;1.60;;;-5.30;99.90;;;;;;5047007;28;20486;-59
2022/01/12 06:10:50;;;;;;;1.70;1.60;;;-5.20;99.90;;;;;;5046378;28;20486;-58
2022/01/12 06:13:17;;;;;;;1.50;1.40;;;-5.10;99.90;;;;;;5043124;28;20229;-58
2022/01/12 06:15:44;;;;;;;1.87;1.77;;;-5.00;99.90;;;;;;5043404;28;20498;-59
2022/01/12 06:18:11;;;;;;;2.92;2.22;;;-4.90;99.90;;;;;;5047454;28;20489;-58
2022/01/12 06:20:37;;;;;;;2.27;2.07;;;-4.90;99.90;;;;;;5044275;28;20215;-57
2022/01/12 06:23:04;;;;;;;1.63;1.53;;;-4.80;99.90;;;;;;5039694;28;20526;-58
2022/01/12 06:25:33;;;;;;;4.00;2.33;;;-4.80;99.90;;;;;;5081267;22;20612;-76
2022/01/12 06:28:20;;;;;;;1.47;1.37;;;-4.70;99.90;;;;;;5059606;28;20948;-76
2022/01/12 06:33:37;;;;;;;1.53;1.00;;;-4.70;99.90;;;;;;5032483;28;20516;-76
2022/01/12 06:36:04;;;;;;;0.85;0.85;;;-4.70;99.90;;;;;;5057158;28;20938;-76
2022/01/12 06:38:31;;;;;;;1.10;1.10;;;-4.60;99.90;;;;;;5055220;28;20257;-76
2022/01/12 06:40:59;;;;;;;1.40;1.30;;;-4.60;99.90;;;;;;5048519;28;20544;-76
2022/01/12 06:43:28;;;;;;;1.27;1.05;;;-4.50;99.90;;;;;;5047374;28;20238;-76
2022/01/12 06:45:55;;;;;;;1.50;0.90;;;-4.40;99.90;;;;;;5056593;28;20201;-76
2022/01/12 06:48:22;;;;;;;0.97;0.80;;;-4.30;99.90;;;;;;5049780;28;20205;-76
2022/01/12 06:50:49;;;;;;;1.60;1.17;;;-4.30;99.90;;;;;;5049655;28;20565;-76
2022/01/12 06:53:17;;;;;;;0.87;0.87;;;-4.40;99.90;;;;;;5047364;28;20514;-76
2022/01/12 06:55:44;;;;;;;1.40;1.30;;;-4.40;99.90;;;;;;5055712;28;20812;-76
2022/01/12 06:58:13;;;;;;;0.80;0.80;;;-4.70;99.90;;;;;;5046631;28;20479;-76
2022/01/12 07:00:40;;;;;;;1.00;1.00;;;-5.20;99.90;;;;;;5047540;28;20473;-77
2022/01/12 07:03:07;;;;;;;1.13;1.03;;;-5.60;99.90;;;;;;5060979;28;20494;-76
2022/01/12 07:05:34;;;;;;;1.63;1.00;;;-5.50;99.90;;;;;;5047028;28;21031;-77
2022/01/12 07:08:01;;;;;;;2.17;1.20;;;-5.60;99.90;;;;;;5056692;28;20473;-75
2022/01/12 07:10:28;;;;;;;1.50;1.23;;;-5.70;99.90;;;;;;5060159;28;20471;-76
2022/01/12 07:12:55;;;;;;;1.70;1.23;;;-5.80;99.90;;;;;;5051809;28;20468;-77
2022/01/12 07:15:24;;;;;;;1.10;1.00;;;-5.70;99.90;;;;;;5049507;28;20472;-76
2022/01/12 07:17:51;;;;;;;1.20;1.10;;;-5.90;99.90;;;;;;5040876;28;20625;-76
2022/01/12 07:20:18;;;;;;;1.00;0.90;;;-5.70;99.90;;;;;;5054922;28;20279;-77
2022/01/12 07:22:45;;;;;;;1.10;1.00;;;-5.60;99.90;;;;;;5050104;28;20527;-76
2022/01/12 07:25:12;;;;;;;1.70;1.60;;;-5.40;99.90;;;;;;5059022;28;20485;-77
2022/01/12 07:27:40;;;;;;;2.57;2.03;;;-5.20;99.90;;;;;;5059879;28;20976;-76
2022/01/12 07:30:09;;;;;;;2.70;2.07;;;-5.00;99.90;;;;;;5050688;28;20872;-76
2022/01/12 07:32:37;;;;;;;4.40;2.90;;;-5.00;99.90;;;;;;5066681;28;21016;-77
2022/01/12 07:35:04;;;;;;;3.03;2.70;;;-4.90;99.90;;;;;;5052100;28;20535;-76
2022/01/12 07:37:32;;;;;;;3.40;3.10;;;-5.00;99.90;;;;;;5060370;28;20482;-76
2022/01/12 07:39:59;;;;;;;5.97;3.40;;;-4.90;99.90;;;;;;5060991;28;20915;-77
2022/01/12 07:42:26;;;;;;;2.80;2.60;;;-4.90;99.90;;;;;;5045231;28;20502;-76
2022/01/12 07:44:59;;;;;;;2.43;2.23;;;-4.90;99.90;;;;;;5043741;28;20481;-75
2022/01/12 07:47:26;;;;;;;1.70;1.60;;;-4.90;99.90;;;;;;5063208;28;20447;-76
2022/01/12 07:49:54;;;;;;;1.80;1.70;;;-4.90;99.90;;;;;;5045605;28;20276;-76
2022/01/12 07:52:21;;;;;;;1.50;1.40;;;-5.00;99.90;;;;;;5054184;28;20567;-76
2022/01/12 07:54:48;;;;;;;1.30;1.20;;;-4.90;99.90;;;;;;5065240;28;20473;-76
2022/01/12 07:57:15;;;;;;;2.00;1.80;;;-4.80;99.90;;;;;;5055395;28;20476;-76
2022/01/12 07:59:42;;;;;;;5.20;1.53;;;-4.80;99.90;;;;;;5052821;28;20491;-76
2022/01/12 08:02:10;;;;;;;3.57;2.37;;;-4.70;99.90;;;;;;5062062;28;20570;-76
2022/01/12 08:04:37;;;;;;;1.90;1.80;;;-4.60;99.90;;;;;;5053741;28;20518;-76
2022/01/12 08:07:07;;;;;;;3.05;1.63;;;-4.60;99.90;;;;;;5053508;28;20869;-77
2022/01/12 08:09:34;;;;;;;2.28;1.75;;;-4.70;99.90;;;;;;5056332;28;20242;-76
2022/01/12 08:12:01;;;;;;;1.53;1.40;;;-4.90;99.90;;;;;;5052994;28;20773;-76
2022/01/12 08:14:28;;;;;;;3.20;2.40;;;-5.00;99.90;;;;;;5054407;28;20537;-76
2022/01/12 08:16:55;;;;;;;3.20;2.47;;;-4.90;99.90;;;;;;5052047;28;20501;-76
2022/01/12 08:19:23;;;;;;;2.70;2.50;;;-5.30;99.90;;;;;;5060038;28;20480;-76
2022/01/12 08:21:50;;;;;;;2.33;2.13;;;-5.60;99.90;;;;;;5058654;28;20681;-77
2022/01/12 08:24:19;;;;;;;1.83;1.67;;;-5.70;99.90;;;;;;5051674;28;20494;-77
2022/01/12 08:26:46;;;;;;;3.80;3.33;;;-6.00;99.90;;;;;;5059891;28;20765;-76
2022/01/12 08:29:15;;;;;;;3.73;3.30;;;-6.10;99.90;;;;;;5055543;28;20526;-76
2022/01/12 08:31:42;;;;;;;3.30;2.92;;;-5.80;99.90;;;;;;5043310;28;20592;-76
2022/01/12 08:34:10;;;;;;;3.25;2.95;;;-5.50;99.90;;;;;;5055723;28;20674;-76
2022/01/12 08:36:37;;;;;;;3.08;1.70;;;-5.30;99.90;;;;;;5061018;28;20201;-76
2022/01/12 08:39:07;;;;;;;3.03;2.53;;;-5.30;99.90;;;;;;5050807;28;20231;-76
2022/01/12 08:41:36;;;;;;;2.53;1.55;;;-5.10;99.90;;;;;;5053020;28;20459;-77
2022/01/12 08:44:04;;;;;;;1.60;1.50;;;-5.20;99.90;;;;;;5054783;28;20238;-77
2022/01/12 08:46:31;;;;;;;2.10;2.00;;;-5.40;99.90;;;;;;5055792;28;20479;-76
2022/01/12 08:48:58;;;;;;;1.60;1.50;;;-5.60;99.90;;;;;;5053180;28;20879;-77
2022/01/12 08:51:25;;;;;;;1.90;1.75;;;-5.60;99.90;;;;;;5059015;28;20754;-76
2022/01/12 08:53:52;;;;;;;2.75;1.95;;;-5.50;99.90;;;;;;5059190;28;20658;-77
2022/01/12 08:56:20;;;;;;;3.50;1.50;;;-5.30;99.90;;;;;;5046503;28;20240;-76
2022/01/12 08:58:48;;;;;;;1.90;1.77;;;-5.10;99.90;;;;;;5050967;28;20226;-76
2022/01/12 09:01:15;;;;;;;3.87;2.33;;;-4.90;99.90;;;;;;5054778;28;20930;-75
2022/01/12 09:03:43;;;;;;;8.10;4.70;;;-5.10;99.90;;;;;;5056942;28;20480;-77
2022/01/12 09:06:10;;;;;;;24.60;13.80;;;-5.00;99.90;;;;;;5049142;28;20470;-76
2022/01/12 09:08:40;;;;;;;15.65;10.88;;;-5.10;99.90;;;;;;5057323;28;20826;-77
2022/01/12 09:11:08;;;;;;;12.63;6.43;;;-5.00;99.90;;;;;;5060193;28;20216;-76
2022/01/12 09:13:35;;;;;;;7.60;5.90;;;-5.00;99.90;;;;;;5044253;28;20481;-76
2022/01/12 09:16:06;;;;;;;10.33;6.20;;;-5.30;99.90;;;;;;5057516;28;20457;-76
2022/01/12 09:18:34;;;;;;;7.90;5.43;;;-5.80;99.90;;;;;;5055635;28;20456;-76
2022/01/12 09:21:01;;;;;;;7.53;5.50;;;-6.00;99.90;;;;;;5049174;28;20498;-76
2022/01/12 09:23:28;;;;;;;9.27;5.53;;;-6.00;99.90;;;;;;5051398;28;20475;-76
2022/01/12 09:25:56;;;;;;;7.10;6.27;;;-6.10;99.90;;;;;;5054984;28;20966;-76
2022/01/12 09:28:23;;;;;;;5.97;4.65;;;-5.90;99.90;;;;;;5052754;28;20472;-75
2022/01/12 09:30:51;;;;;;;5.60;4.30;;;-5.60;99.90;;;;;;5047897;28;20738;-76
2022/01/12 09:33:19;;;;;;;6.90;4.90;;;-5.40;99.90;;;;;;5054962;28;20484;-77
2022/01/12 09:35:49;;;;;;;3.70;3.27;;;-5.20;99.90;;;;;;5054275;28;20291;-77
2022/01/12 09:38:16;;;;;;;3.60;3.10;;;-5.00;99.90;;;;;;5051910;28;20448;-77
2022/01/12 09:40:44;;;;;;;3.63;3.05;;;-4.90;99.90;;;;;;5054236;28;20445;-75
2022/01/12 09:43:12;;;;;;;5.60;4.50;;;-4.90;99.90;;;;;;5045955;28;20251;-76
2022/01/12 09:45:43;;;;;;;5.77;4.40;;;-4.90;99.90;;;;;;5055393;28;20475;-77
2022/01/12 09:48:10;;;;;;;4.13;3.80;;;-4.70;99.90;;;;;;5049455;28;20462;-76
2022/01/12 09:50:39;;;;;;;5.00;4.23;;;-4.70;99.90;;;;;;5057567;28;20536;-76
2022/01/12 09:53:06;;;;;;;4.80;4.40;;;-4.70;99.90;;;;;;5058273;28;21251;-76
2022/01/12 09:55:33;;;;;;;4.00;3.63;;;-4.70;99.90;;;;;;5047382;28;20462;-77
2022/01/12 09:58:00;;;;;;;4.60;3.40;;;-4.60;99.90;;;;;;5055841;28;20722;-76
2022/01/12 10:00:28;;;;;;;6.37;3.40;;;-4.50;99.90;;;;;;5055896;28;20949;-76
2022/01/12 10:02:56;;;;;;;3.97;2.60;;;-4.50;99.90;;;;;;5046487;28;20472;-76
2022/01/12 10:05:31;;;;;;;2.63;2.43;;;-4.40;99.90;;;;;;5052399;28;20478;-77
2022/01/12 10:08:10;;;;;;;2.40;2.20;;;-4.40;99.90;;;;;;5047776;28;20457;-77
2022/01/12 10:10:37;;;;;;;1.70;1.42;;;-4.30;99.90;;;;;;5052001;28;20466;-77
2022/01/12 10:13:04;;;;;;;1.33;1.23;;;-4.40;99.90;;;;;;5046827;28;20707;-77
2022/01/12 10:15:31;;;;;;;1.57;1.47;;;-4.50;99.90;;;;;;5053509;28;20512;-77
2022/01/12 10:18:02;;;;;;;1.73;1.33;;;-4.40;99.90;;;;;;5043693;28;20472;-76
2022/01/12 10:20:30;;;;;;;4.77;3.20;;;-4.40;99.90;;;;;;5052931;28;20621;-77
2022/01/12 10:23:00;;;;;;;7.63;5.30;;;-4.40;99.90;;;;;;5050130;28;20986;-77
2022/01/12 10:25:30;;;;;;;6.70;4.63;;;-4.20;99.90;;;;;;5054831;28;20458;-77
2022/01/12 10:27:58;;;;;;;5.00;4.03;;;-4.00;99.90;;;;;;5050281;28;20468;-76
2022/01/12 10:30:27;;;;;;;4.47;3.50;;;-3.80;99.90;;;;;;5048037;28;20466;-77
2022/01/12 10:33:04;;;;;;;4.00;3.00;;;-3.60;99.90;;;;;;5048737;28;20512;-76
2022/01/12 10:35:32;;;;;;;2.73;1.90;;;-3.50;99.90;;;;;;5058166;28;20497;-77
2022/01/12 10:38:07;;;;;;;3.10;1.53;;;-3.40;99.90;;;;;;5052286;28;20959;-77
2022/01/12 10:40:46;;;;;;;1.33;1.23;;;-3.50;99.90;;;;;;5054987;28;20534;-77
2022/01/12 10:43:33;;;;;;;2.13;1.60;;;-3.40;99.90;;;;;;5055687;28;20522;-76
2022/01/12 10:46:02;;;;;;;2.10;1.40;;;-3.20;99.90;;;;;;5057125;28;20525;-77
2022/01/12 10:48:44;;;;;;;1.70;1.60;;;-3.20;99.90;;;;;;5056596;28;20479;-77
2022/01/12 10:51:12;;;;;;;1.87;1.77;;;-3.10;99.90;;;;;;5052430;28;20468;-77
2022/01/12 10:53:39;;;;;;;2.07;1.87;;;-3.00;99.90;;;;;;5063207;28;21005;-77
2022/01/12 10:56:09;;;;;;;0.90;0.90;;;-2.80;99.90;;;;;;5062445;28;20472;-76
2022/01/12 10:58:39;;;;;;;2.30;2.10;;;-2.90;99.90;;;;;;5049119;28;20496;-77
2022/01/12 11:01:06;;;;;;;1.60;1.30;;;-2.90;99.90;;;;;;5045785;28;20526;-75
2022/01/12 11:03:34;;;;;;;1.70;1.60;;;-3.00;99.90;;;;;;5066155;28;20522;-77
2022/01/12 11:06:02;;;;;;;1.40;1.03;;;-3.00;99.90;;;;;;5047551;28;20474;-77
2022/01/12 11:08:29;;;;;;;1.53;1.40;;;-2.90;99.90;;;;;;5054318;28;20442;-76
2022/01/12 11:10:58;;;;;;;1.50;1.40;;;-2.70;99.90;;;;;;5040947;28;20462;-76
2022/01/12 11:13:28;;;;;;;2.27;1.43;;;-2.60;99.90;;;;;;5043229;28;20509;-77
2022/01/12 11:15:57;;;;;;;1.20;1.10;;;-2.50;99.90;;;;;;5047624;28;20440;-76
2022/01/12 11:18:26;;;;;;;1.50;1.40;;;-2.40;99.90;;;;;;5039413;28;20445;-77
2022/01/12 11:21:00;;;;;;;1.33;1.20;;;-2.30;99.90;;;;;;5045024;28;20945;-76
2022/01/12 11:23:35;;;;;;;1.23;1.13;;;-2.30;99.90;;;;;;5043887;28;20480;-77
2022/01/12 11:26:13;;;;;;;1.00;1.00;;;-2.20;99.90;;;;;;5040779;28;20908;-77
2022/01/12 11:28:42;;;;;;;1.37;1.20;;;-2.10;99.90;;;;;;5045232;28;20461;-77
2022/01/12 11:31:09;;;;;;;2.37;1.73;;;-2.10;99.90;;;;;;5046048;28;20961;-77
2022/01/12 11:33:40;;;;;;;3.10;2.60;;;-2.10;99.90;;;;;;5041016;28;20531;-75
2022/01/12 11:36:18;;;;;;;5.13;2.20;;;-2.00;99.90;;;;;;5045917;28;20451;-77
2022/01/12 11:38:48;;;;;;;2.30;2.10;;;-2.00;99.90;;;;;;5064886;28;20465;-77
2022/01/12 11:41:20;;;;;;;2.33;1.80;;;-2.00;99.90;;;;;;5055435;28;20823;-76
2022/01/12 11:43:51;;;;;;;3.40;2.73;;;-2.00;99.90;;;;;;5050469;28;21026;-76
2022/01/12 11:46:20;;;;;;;3.87;3.17;;;-1.90;99.90;;;;;;5059654;28;20479;-76
2022/01/12 11:48:49;;;;;;;3.37;3.07;;;-1.90;99.90;;;;;;5054429;28;20468;-76
2022/01/12 11:51:17;;;;;;;6.63;4.47;;;-2.00;99.90;;;;;;5055441;28;20500;-77
2022/01/12 11:53:49;;;;;;;3.93;3.50;;;-2.10;99.90;;;;;;5057175;28;20509;-77
2022/01/12 11:56:19;;;;;;;4.63;3.67;;;-2.00;99.90;;;;;;5059766;28;20520;-75
2022/01/12 11:58:59;;;;;;;4.63;3.37;;;-2.00;99.90;;;;;;5055118;28;20492;-76
2022/01/12 12:01:38;;;;;;;4.50;3.67;;;-1.80;99.90;;;;;;5045879;28;20496;-76
2022/01/12 12:04:06;;;;;;;5.93;4.10;;;-1.80;99.90;;;;;;5058332;28;20445;-77
2022/01/12 12:06:34;;;;;;;7.87;4.10;;;-1.60;99.90;;;;;;5064137;28;21139;-77
2022/01/12 12:09:04;;;;;;;10.37;6.10;;;-1.50;99.90;;;;;;5049481;28;20549;-77
2022/01/12 12:11:34;;;;;;;4.23;3.77;;;-1.40;99.90;;;;;;5069476;23;20582;-55
2022/01/12 12:14:04;;;;;;;3.43;3.10;;;-1.30;99.90;;;;;;5036384;28;20564;-56
2022/01/12 12:16:32;;;;;;;2.57;2.37;;;-1.40;99.90;;;;;;5035202;28;20490;-56
2022/01/12 12:19:02;;;;;;;3.23;2.30;;;-1.30;99.90;;;;;;5029491;28;20467;-54
2022/01/12 12:21:30;;;;;;;3.20;2.90;;;-1.30;99.90;;;;;;5034766;28;21009;-56
2022/01/12 12:24:08;;;;;;;3.00;2.80;;;-1.30;99.90;;;;;;5095096;22;20725;-53
2022/01/12 12:26:36;;;;;;;3.40;2.80;;;-1.30;99.90;;;;;;5027096;28;20448;-53
2022/01/12 12:29:05;;;;;;;3.17;2.80;;;-1.30;99.90;;;;;;5032571;28;20474;-53
2022/01/12 12:31:32;;;;;;;5.13;3.30;;;-1.30;99.90;;;;;;5039769;28;20935;-53
2022/01/12 12:34:03;;;;;;;5.93;3.00;;;-1.40;99.90;;;;;;5038904;28;20520;-52
2022/01/12 12:36:30;;;;;;;4.10;2.87;;;-1.30;99.90;;;;;;5026255;28;20900;-53
2022/01/12 12:39:09;;;;;;;5.93;2.73;;;-1.30;99.90;;;;;;5036919;28;20531;-52
2022/01/12 12:41:41;;;;;;;3.70;3.33;;;-1.10;99.90;;;;;;5044453;28;20471;-52
2022/01/12 12:44:21;;;;;;;6.40;3.93;;;-1.10;99.90;;;;;;5030671;28;20468;-52
2022/01/12 12:46:48;;;;;;;4.50;3.80;;;-1.20;99.90;;;;;;5031844;28;20530;-53
2022/01/12 12:49:15;;;;;;;6.50;3.77;;;-1.00;99.90;;;;;;5036396;28;20927;-51
2022/01/12 12:51:43;;;;;;;5.40;2.57;;;-1.00;99.90;;;;;;5034630;28;20473;-51
2022/01/12 12:54:12;;;;;;;6.33;3.80;;;-1.00;99.90;;;;;;5033278;28;20923;-52
2022/01/12 12:56:43;;;;;;;3.07;2.80;;;-1.10;99.90;;;;;;5036820;28;20482;-52
2022/01/12 12:59:11;;;;;;;4.80;3.10;;;-1.00;99.90;;;;;;5036607;28;20456;-52
2022/01/12 13:01:38;;;;;;;3.23;2.90;;;-1.30;99.90;;;;;;5034938;28;20480;-52
2022/01/12 13:04:05;;;;;;;6.73;2.60;;;-1.20;99.90;;;;;;5029328;28;20441;-54
2022/01/12 13:06:34;;;;;;;3.00;2.07;;;-1.10;99.90;;;;;;5040828;28;20476;-53
2022/01/12 13:09:04;;;;;;;2.87;2.57;;;-1.00;99.90;;;;;;5038923;28;20434;-53
2022/01/12 13:11:33;;;;;;;2.20;1.73;;;-0.90;99.90;;;;;;5028213;28;20993;-53
2022/01/12 13:14:02;;;;;;;1.93;1.80;;;-0.80;99.90;;;;;;5030668;28;20517;-51
2022/01/12 13:16:30;;;;;;;3.83;2.10;;;-0.90;99.90;;;;;;5035376;28;20443;-51
2022/01/12 13:19:05;;;;;;;1.63;1.53;;;-1.00;99.90;;;;;;5028464;28;20475;-50
2022/01/12 13:21:32;;;;;;;1.63;1.53;;;-1.00;99.90;;;;;;5029565;28;21179;-54
2022/01/12 13:24:00;;;;;;;1.73;1.60;;;-1.10;99.90;;;;;;5041962;28;20537;-50
2022/01/12 13:26:31;;;;;;;3.20;2.10;;;-1.00;99.90;;;;;;5033090;28;20470;-51
2022/01/12 13:29:01;;;;;;;3.03;2.40;;;-1.00;99.90;;;;;;5030875;28;20454;-53
2022/01/12 13:31:28;;;;;;;3.00;2.60;;;-0.90;99.90;;;;;;5037197;28;20446;-52
2022/01/12 13:34:00;;;;;;;5.37;3.47;;;-0.80;99.90;;;;;;5036818;28;20485;-50
2022/01/12 13:36:29;;;;;;;8.97;4.23;;;-0.80;99.90;;;;;;5031181;28;20479;-53
2022/01/12 13:38:57;;;;;;;7.60;4.70;;;-0.70;99.90;;;;;;5030778;28;20950;-50
2022/01/12 13:41:28;;;;;;;4.13;3.73;;;-0.60;99.90;;;;;;5038198;28;20447;-51
2022/01/12 13:43:57;;;;;;;3.90;3.10;;;-0.70;99.90;;;;;;5034284;28;20987;-51
2022/01/12 13:46:31;;;;;;;3.50;2.70;;;-0.70;99.90;;;;;;5022815;28;20938;-51
2022/01/12 13:49:20;;;;;;;3.43;3.03;;;-0.80;99.90;;;;;;5022942;28;20449;-52
2022/01/12 13:51:54;;;;;;;4.27;3.10;;;-0.90;99.90;;;;;;5042875;28;20954;-51
2022/01/12 13:54:22;;;;;;;7.40;3.73;;;-1.00;99.90;;;;;;5028350;28;20571;-50
2022/01/12 13:56:52;;;;;;;4.80;3.23;;;-1.00;99.90;;;;;;5031807;28;20475;-52
2022/01/12 13:59:20;;;;;;;5.57;4.03;;;-1.00;99.90;;;;;;5038729;28;20482;-51
2022/01/12 14:01:48;;;;;;;4.87;3.40;;;-1.00;99.90;;;;;;5035453;28;20866;-50
2022/01/12 14:04:30;;;;;;;3.40;3.10;;;-1.00;99.90;;;;;;5031448;28;20497;-51